sensor_id;sensor_type;location;lat;lon;timestamp;temperature;humidity
10390;DHT22;5241;47.830;12.972;2023-08-01T00:00:31;19.00;99.90
10390;DHT22;5241;47.830;12.972;2023-08-01T00:02:57;19.00;99.90
10390;DHT22;5241;47.830;12.972;2023-08-01T00:05:22;19.00;99.90
10390;DHT22;5241;47.830;12.972;2023-08-01T00:07:48;19.00;99.90
10390;DHT22;5241;47.830;12.972;2023-08-01T00:10:13;19.00;99.90
10390;DHT22;5241;47.830;12.972;2023-08-01T00:12:39;18.90;99.90
10390;DHT22;5241;47.830;12.972;2023-08-01T00:15:05;19.00;99.90
10390;DHT22;5241;47.830;12.972;2023-08-01T00:17:30;19.00;99.90
10390;DHT22;5241;47.830;12.972;2023-08-01T00:19:56;19.00;99.90
10390;DHT22;5241;47.830;12.972;2023-08-01T00:22:22;19.00;99.90
10390;DHT22;5241;47.830;12.972;2023-08-01T00:24:47;18.90;99.90
10390;DHT22;5241;47.830;12.972;2023-08-01T00:27:13;18.90;99.90
10390;DHT22;5241;47.830;12.972;2023-08-01T00:29:39;18.70;99.90
10390;DHT22;5241;47.830;12.972;2023-08-01T00:32:05;18.70;99.90
10390;DHT22;5241;47.830;12.972;2023-08-01T00:34:31;18.60;99.90
10390;DHT22;5241;47.830;12.972;2023-08-01T00:36:57;18.50;99.90
10390;DHT22;5241;47.830;12.972;2023-08-01T00:39:23;18.40;99.90
10390;DHT22;5241;47.830;12.972;2023-08-01T00:41:48;18.40;99.90
10390;DHT22;5241;47.830;12.972;2023-08-01T00:44:14;18.50;99.90
10390;DHT22;5241;47.830;12.972;2023-08-01T00:46:40;18.40;99.90
10390;DHT22;5241;47.830;12.972;2023-08-01T00:49:05;18.40;99.90
10390;DHT22;5241;47.830;12.972;2023-08-01T00:51:34;18.40;99.90
10390;DHT22;5241;47.830;12.972;2023-08-01T00:54:00;18.40;99.90
10390;DHT22;5241;47.830;12.972;2023-08-01T00:56:25;18.40;99.90
10390;DHT22;5241;47.830;12.972;2023-08-01T00:58:51;18.30;99.90
10390;DHT22;5241;47.830;12.972;2023-08-01T01:01:17;18.30;99.90
10390;DHT22;5241;47.830;12.972;2023-08-01T01:03:43;18.30;99.90
10390;DHT22;5241;47.830;12.972;2023-08-01T01:06:20;18.30;99.90
10390;DHT22;5241;47.830;12.972;2023-08-01T01:08:48;18.30;99.90
10390;DHT22;5241;47.830;12.972;2023-08-01T01:11:14;18.20;99.90
10390;DHT22;5241;47.830;12.972;2023-08-01T01:13:40;18.20;99.90
10390;DHT22;5241;47.830;12.972;2023-08-01T01:16:05;18.20;99.90
10390;DHT22;5241;47.830;12.972;2023-08-01T01:18:31;18.30;99.90
10390;DHT22;5241;47.830;12.972;2023-08-01T01:20:56;18.30;99.90
10390;DHT22;5241;47.830;12.972;2023-08-01T01:23:22;18.30;99.90
10390;DHT22;5241;47.830;12.972;2023-08-01T01:25:50;18.20;99.90
10390;DHT22;5241;47.830;12.972;2023-08-01T01:28:17;18.20;99.90
10390;DHT22;5241;47.830;12.972;2023-08-01T01:30:43;18.20;99.90
10390;DHT22;5241;47.830;12.972;2023-08-01T01:33:09;18.20;99.90
10390;DHT22;5241;47.830;12.972;2023-08-01T01:35:35;18.20;99.90
10390;DHT22;5241;47.830;12.972;2023-08-01T01:38:01;18.20;99.90
10390;DHT22;5241;47.830;12.972;2023-08-01T01:40:30;18.20;99.90
10390;DHT22;5241;47.830;12.972;2023-08-01T01:42:56;18.10;99.90
10390;DHT22;5241;47.830;12.972;2023-08-01T01:45:21;18.10;99.90
10390;DHT22;5241;47.830;12.972;2023-08-01T01:47:47;18.00;99.90
10390;DHT22;5241;47.830;12.972;2023-08-01T01:50:12;18.00;99.90
10390;DHT22;5241;47.830;12.972;2023-08-01T01:52:38;17.90;99.90
10390;DHT22;5241;47.830;12.972;2023-08-01T01:55:04;17.90;99.90
10390;DHT22;5241;47.830;12.972;2023-08-01T01:57:29;18.00;99.90
10390;DHT22;5241;47.830;12.972;2023-08-01T01:59:55;17.90;99.90
10390;DHT22;5241;47.830;12.972;2023-08-01T02:02:21;17.90;99.90
10390;DHT22;5241;47.830;12.972;2023-08-01T02:04:47;18.00;99.90
10390;DHT22;5241;47.830;12.972;2023-08-01T02:07:13;18.10;99.90
10390;DHT22;5241;47.830;12.972;2023-08-01T02:09:39;18.10;99.90
10390;DHT22;5241;47.830;12.972;2023-08-01T02:12:05;18.10;99.90
10390;DHT22;5241;47.830;12.972;2023-08-01T02:14:33;18.00;99.90
10390;DHT22;5241;47.830;12.972;2023-08-01T02:16:58;17.90;99.90
10390;DHT22;5241;47.830;12.972;2023-08-01T02:19:24;17.80;99.90
10390;DHT22;5241;47.830;12.972;2023-08-01T02:21:49;17.90;99.90
10390;DHT22;5241;47.830;12.972;2023-08-01T02:24:15;17.70;99.90
10390;DHT22;5241;47.830;12.972;2023-08-01T02:26:40;17.60;99.90
10390;DHT22;5241;47.830;12.972;2023-08-01T02:29:06;17.50;99.90
10390;DHT22;5241;47.830;12.972;2023-08-01T02:31:31;17.30;99.90
10390;DHT22;5241;47.830;12.972;2023-08-01T02:33:57;17.30;99.90
10390;DHT22;5241;47.830;12.972;2023-08-01T02:36:23;17.30;99.90
10390;DHT22;5241;47.830;12.972;2023-08-01T02:38:49;17.20;99.90
10390;DHT22;5241;47.830;12.972;2023-08-01T02:41:14;17.20;99.90
10390;DHT22;5241;47.830;12.972;2023-08-01T02:43:40;17.20;99.90
10390;DHT22;5241;47.830;12.972;2023-08-01T02:46:06;17.30;99.90
10390;DHT22;5241;47.830;12.972;2023-08-01T02:48:32;17.20;99.90
10390;DHT22;5241;47.830;12.972;2023-08-01T02:50:58;17.20;99.90
10390;DHT22;5241;47.830;12.972;2023-08-01T02:53:24;17.20;99.90
10390;DHT22;5241;47.830;12.972;2023-08-01T02:55:49;17.20;99.90
10390;DHT22;5241;47.830;12.972;2023-08-01T02:58:15;17.10;99.90
10390;DHT22;5241;47.830;12.972;2023-08-01T03:00:42;17.10;99.90
10390;DHT22;5241;47.830;12.972;2023-08-01T03:03:08;17.10;99.90
10390;DHT22;5241;47.830;12.972;2023-08-01T03:05:36;17.10;99.90
10390;DHT22;5241;47.830;12.972;2023-08-01T03:08:03;17.00;99.90
10390;DHT22;5241;47.830;12.972;2023-08-01T03:10:29;16.90;99.90
10390;DHT22;5241;47.830;12.972;2023-08-01T03:12:54;16.90;99.90
10390;DHT22;5241;47.830;12.972;2023-08-01T03:15:20;16.80;99.90
10390;DHT22;5241;47.830;12.972;2023-08-01T03:17:45;16.80;99.90
10390;DHT22;5241;47.830;12.972;2023-08-01T03:20:11;16.70;99.90
10390;DHT22;5241;47.830;12.972;2023-08-01T03:22:40;16.80;99.90
10390;DHT22;5241;47.830;12.972;2023-08-01T03:25:07;16.70;99.90
10390;DHT22;5241;47.830;12.972;2023-08-01T03:27:33;16.70;99.90
10390;DHT22;5241;47.830;12.972;2023-08-01T03:29:59;16.70;99.90
10390;DHT22;5241;47.830;12.972;2023-08-01T03:32:25;16.70;99.90
10390;DHT22;5241;47.830;12.972;2023-08-01T03:34:50;16.70;99.90
10390;DHT22;5241;47.830;12.972;2023-08-01T03:37:16;16.70;99.90
10390;DHT22;5241;47.830;12.972;2023-08-01T03:39:43;16.60;99.90
10390;DHT22;5241;47.830;12.972;2023-08-01T03:42:09;16.60;99.90
10390;DHT22;5241;47.830;12.972;2023-08-01T03:44:38;16.60;99.90
10390;DHT22;5241;47.830;12.972;2023-08-01T03:47:03;16.70;99.90
10390;DHT22;5241;47.830;12.972;2023-08-01T03:49:29;16.70;99.90
10390;DHT22;5241;47.830;12.972;2023-08-01T03:51:54;16.70;99.90
10390;DHT22;5241;47.830;12.972;2023-08-01T03:54:20;16.60;99.90
10390;DHT22;5241;47.830;12.972;2023-08-01T03:56:46;16.60;99.90
10390;DHT22;5241;47.830;12.972;2023-08-01T03:59:12;16.60;99.90
10390;DHT22;5241;47.830;12.972;2023-08-01T04:01:38;16.60;99.90
10390;DHT22;5241;47.830;12.972;2023-08-01T04:04:04;16.70;99.90
10390;DHT22;5241;47.830;12.972;2023-08-01T04:06:29;16.70;99.90
10390;DHT22;5241;47.830;12.972;2023-08-01T04:08:55;16.70;99.90
10390;DHT22;5241;47.830;12.972;2023-08-01T04:11:22;16.70;99.90
10390;DHT22;5241;47.830;12.972;2023-08-01T04:13:47;16.70;99.90
10390;DHT22;5241;47.830;12.972;2023-08-01T04:16:13;16.70;99.90
10390;DHT22;5241;47.830;12.972;2023-08-01T04:18:39;16.70;99.90
10390;DHT22;5241;47.830;12.972;2023-08-01T04:21:04;16.70;99.90
10390;DHT22;5241;47.830;12.972;2023-08-01T04:23:30;16.60;99.90
10390;DHT22;5241;47.830;12.972;2023-08-01T04:25:55;16.60;99.90
10390;DHT22;5241;47.830;12.972;2023-08-01T04:28:21;16.50;99.90
10390;DHT22;5241;47.830;12.972;2023-08-01T04:30:50;16.50;99.90
10390;DHT22;5241;47.830;12.972;2023-08-01T04:33:16;16.50;99.90
10390;DHT22;5241;47.830;12.972;2023-08-01T04:35:41;16.50;99.90
10390;DHT22;5241;47.830;12.972;2023-08-01T04:38:07;16.60;99.90
10390;DHT22;5241;47.830;12.972;2023-08-01T04:40:34;16.60;99.90
10390;DHT22;5241;47.830;12.972;2023-08-01T04:43:01;16.50;99.90
10390;DHT22;5241;47.830;12.972;2023-08-01T04:45:26;16.50;99.90
10390;DHT22;5241;47.830;12.972;2023-08-01T04:47:52;16.50;99.90
10390;DHT22;5241;47.830;12.972;2023-08-01T04:50:17;16.50;99.90
10390;DHT22;5241;47.830;12.972;2023-08-01T04:52:43;16.50;99.90
10390;DHT22;5241;47.830;12.972;2023-08-01T04:55:08;16.50;99.90
10390;DHT22;5241;47.830;12.972;2023-08-01T04:57:34;16.50;99.90
10390;DHT22;5241;47.830;12.972;2023-08-01T05:00:00;16.50;99.90
10390;DHT22;5241;47.830;12.972;2023-08-01T05:02:25;16.50;99.90
10390;DHT22;5241;47.830;12.972;2023-08-01T05:04:51;16.50;99.90
10390;DHT22;5241;47.830;12.972;2023-08-01T05:07:17;16.50;99.90
10390;DHT22;5241;47.830;12.972;2023-08-01T05:09:42;16.60;99.90
10390;DHT22;5241;47.830;12.972;2023-08-01T05:12:08;16.50;99.90
10390;DHT22;5241;47.830;12.972;2023-08-01T05:14:34;16.50;99.90
10390;DHT22;5241;47.830;12.972;2023-08-01T05:17:00;16.50;99.90
10390;DHT22;5241;47.830;12.972;2023-08-01T05:19:25;16.60;99.90
10390;DHT22;5241;47.830;12.972;2023-08-01T05:21:51;16.60;99.90
10390;DHT22;5241;47.830;12.972;2023-08-01T05:24:16;16.70;99.90
10390;DHT22;5241;47.830;12.972;2023-08-01T05:26:42;16.70;99.90
10390;DHT22;5241;47.830;12.972;2023-08-01T05:29:08;16.70;99.90
10390;DHT22;5241;47.830;12.972;2023-08-01T05:31:33;16.70;99.90
10390;DHT22;5241;47.830;12.972;2023-08-01T05:33:59;16.70;99.90
10390;DHT22;5241;47.830;12.972;2023-08-01T05:36:24;16.70;99.90
10390;DHT22;5241;47.830;12.972;2023-08-01T05:38:50;16.70;99.90
10390;DHT22;5241;47.830;12.972;2023-08-01T05:41:15;16.70;99.90
10390;DHT22;5241;47.830;12.972;2023-08-01T05:43:41;16.70;99.90
10390;DHT22;5241;47.830;12.972;2023-08-01T05:46:06;16.60;99.90
10390;DHT22;5241;47.830;12.972;2023-08-01T05:48:32;16.60;99.90
10390;DHT22;5241;47.830;12.972;2023-08-01T05:50:57;16.60;99.90
10390;DHT22;5241;47.830;12.972;2023-08-01T05:53:23;16.60;99.90
10390;DHT22;5241;47.830;12.972;2023-08-01T05:55:49;16.50;99.90
10390;DHT22;5241;47.830;12.972;2023-08-01T05:58:15;16.50;99.90
10390;DHT22;5241;47.830;12.972;2023-08-01T06:00:41;16.50;99.90
10390;DHT22;5241;47.830;12.972;2023-08-01T06:03:06;16.50;99.90
10390;DHT22;5241;47.830;12.972;2023-08-01T06:05:32;16.60;99.90
10390;DHT22;5241;47.830;12.972;2023-08-01T06:07:57;16.60;99.90
10390;DHT22;5241;47.830;12.972;2023-08-01T06:10:23;16.60;99.90
10390;DHT22;5241;47.830;12.972;2023-08-01T06:12:49;16.60;99.90
10390;DHT22;5241;47.830;12.972;2023-08-01T06:15:14;16.60;99.90
10390;DHT22;5241;47.830;12.972;2023-08-01T06:17:40;16.60;99.90
10390;DHT22;5241;47.830;12.972;2023-08-01T06:20:06;16.60;99.90
10390;DHT22;5241;47.830;12.972;2023-08-01T06:22:32;16.70;99.90
10390;DHT22;5241;47.830;12.972;2023-08-01T06:24:57;16.60;99.90
10390;DHT22;5241;47.830;12.972;2023-08-01T06:27:24;16.60;99.90
10390;DHT22;5241;47.830;12.972;2023-08-01T06:29:50;16.60;99.90
10390;DHT22;5241;47.830;12.972;2023-08-01T06:32:15;16.60;99.90
10390;DHT22;5241;47.830;12.972;2023-08-01T06:34:41;16.60;99.90
10390;DHT22;5241;47.830;12.972;2023-08-01T06:37:06;16.60;99.90
10390;DHT22;5241;47.830;12.972;2023-08-01T06:39:32;16.60;99.90
10390;DHT22;5241;47.830;12.972;2023-08-01T06:41:57;16.60;99.90
10390;DHT22;5241;47.830;12.972;2023-08-01T06:44:23;16.60;99.90
10390;DHT22;5241;47.830;12.972;2023-08-01T06:46:48;16.60;99.90
10390;DHT22;5241;47.830;12.972;2023-08-01T06:49:14;16.70;99.90
10390;DHT22;5241;47.830;12.972;2023-08-01T06:51:40;16.70;99.90
10390;DHT22;5241;47.830;12.972;2023-08-01T06:54:07;16.80;99.90
10390;DHT22;5241;47.830;12.972;2023-08-01T06:56:33;16.90;99.90
10390;DHT22;5241;47.830;12.972;2023-08-01T06:58:58;16.90;99.90
10390;DHT22;5241;47.830;12.972;2023-08-01T07:01:24;17.00;99.90
10390;DHT22;5241;47.830;12.972;2023-08-01T07:03:49;16.90;99.90
10390;DHT22;5241;47.830;12.972;2023-08-01T07:06:17;16.90;99.90
10390;DHT22;5241;47.830;12.972;2023-08-01T07:08:43;16.90;99.90
10390;DHT22;5241;47.830;12.972;2023-08-01T07:11:09;17.00;99.90
10390;DHT22;5241;47.830;12.972;2023-08-01T07:13:34;16.90;99.90
10390;DHT22;5241;47.830;12.972;2023-08-01T07:16:00;17.00;99.90
10390;DHT22;5241;47.830;12.972;2023-08-01T07:18:25;17.00;99.90
10390;DHT22;5241;47.830;12.972;2023-08-01T07:21:04;17.00;99.90
10390;DHT22;5241;47.830;12.972;2023-08-01T07:23:31;17.00;99.90
10390;DHT22;5241;47.830;12.972;2023-08-01T07:25:57;17.00;99.90
10390;DHT22;5241;47.830;12.972;2023-08-01T07:28:22;17.00;99.90
10390;DHT22;5241;47.830;12.972;2023-08-01T07:30:48;17.00;99.90
10390;DHT22;5241;47.830;12.972;2023-08-01T07:33:13;17.00;99.90
10390;DHT22;5241;47.830;12.972;2023-08-01T07:35:39;17.10;99.90
10390;DHT22;5241;47.830;12.972;2023-08-01T07:38:04;17.20;99.90
10390;DHT22;5241;47.830;12.972;2023-08-01T07:40:30;17.30;99.90
10390;DHT22;5241;47.830;12.972;2023-08-01T07:42:55;17.30;99.90
10390;DHT22;5241;47.830;12.972;2023-08-01T07:45:21;17.40;99.90
10390;DHT22;5241;47.830;12.972;2023-08-01T07:47:47;17.50;99.90
10390;DHT22;5241;47.830;12.972;2023-08-01T07:50:12;17.50;99.90
10390;DHT22;5241;47.830;12.972;2023-08-01T07:52:38;17.50;99.90
10390;DHT22;5241;47.830;12.972;2023-08-01T07:55:04;17.50;99.90
10390;DHT22;5241;47.830;12.972;2023-08-01T07:57:30;17.40;99.90
10390;DHT22;5241;47.830;12.972;2023-08-01T07:59:56;17.40;99.90
10390;DHT22;5241;47.830;12.972;2023-08-01T08:02:21;17.30;99.90
10390;DHT22;5241;47.830;12.972;2023-08-01T08:04:47;17.20;99.90
10390;DHT22;5241;47.830;12.972;2023-08-01T08:07:12;17.10;99.90
10390;DHT22;5241;47.830;12.972;2023-08-01T08:09:38;17.00;99.90
10390;DHT22;5241;47.830;12.972;2023-08-01T08:12:04;17.00;99.90
10390;DHT22;5241;47.830;12.972;2023-08-01T08:14:29;16.90;99.90
10390;DHT22;5241;47.830;12.972;2023-08-01T08:16:55;16.90;99.90
10390;DHT22;5241;47.830;12.972;2023-08-01T08:19:21;16.90;99.90
10390;DHT22;5241;47.830;12.972;2023-08-01T08:21:49;16.90;99.90
10390;DHT22;5241;47.830;12.972;2023-08-01T08:24:14;16.90;99.90
10390;DHT22;5241;47.830;12.972;2023-08-01T08:26:40;16.90;99.90
10390;DHT22;5241;47.830;12.972;2023-08-01T08:29:05;16.90;99.90
10390;DHT22;5241;47.830;12.972;2023-08-01T08:31:31;16.90;99.90
10390;DHT22;5241;47.830;12.972;2023-08-01T08:33:57;16.90;99.90
10390;DHT22;5241;47.830;12.972;2023-08-01T08:36:22;16.90;99.90
10390;DHT22;5241;47.830;12.972;2023-08-01T08:38:48;16.90;99.90
10390;DHT22;5241;47.830;12.972;2023-08-01T08:41:20;16.90;99.90
10390;DHT22;5241;47.830;12.972;2023-08-01T08:43:47;16.80;99.90
10390;DHT22;5241;47.830;12.972;2023-08-01T08:46:15;16.70;99.90
10390;DHT22;5241;47.830;12.972;2023-08-01T08:48:41;16.70;99.90
10390;DHT22;5241;47.830;12.972;2023-08-01T08:51:08;16.70;99.90
10390;DHT22;5241;47.830;12.972;2023-08-01T08:53:35;16.70;99.90
10390;DHT22;5241;47.830;12.972;2023-08-01T08:56:02;16.80;99.90
10390;DHT22;5241;47.830;12.972;2023-08-01T08:58:29;16.70;99.90
10390;DHT22;5241;47.830;12.972;2023-08-01T09:01:00;16.70;99.90
10390;DHT22;5241;47.830;12.972;2023-08-01T09:03:26;16.70;99.90
10390;DHT22;5241;47.830;12.972;2023-08-01T09:05:59;16.70;99.90
10390;DHT22;5241;47.830;12.972;2023-08-01T09:08:28;16.70;99.90
10390;DHT22;5241;47.830;12.972;2023-08-01T09:10:55;16.70;99.90
10390;DHT22;5241;47.830;12.972;2023-08-01T09:13:21;16.70;99.90
10390;DHT22;5241;47.830;12.972;2023-08-01T09:15:47;16.70;99.90
10390;DHT22;5241;47.830;12.972;2023-08-01T09:18:13;16.70;99.90
10390;DHT22;5241;47.830;12.972;2023-08-01T09:20:46;16.70;99.90
10390;DHT22;5241;47.830;12.972;2023-08-01T09:23:12;16.70;99.90
10390;DHT22;5241;47.830;12.972;2023-08-01T09:25:38;16.60;99.90
10390;DHT22;5241;47.830;12.972;2023-08-01T09:28:15;16.60;99.90
10390;DHT22;5241;47.830;12.972;2023-08-01T09:30:52;16.70;99.90
10390;DHT22;5241;47.830;12.972;2023-08-01T09:33:19;16.80;99.90
10390;DHT22;5241;47.830;12.972;2023-08-01T09:35:45;16.90;99.90
10390;DHT22;5241;47.830;12.972;2023-08-01T09:38:14;17.10;99.90
10390;DHT22;5241;47.830;12.972;2023-08-01T09:40:44;17.30;99.90
10390;DHT22;5241;47.830;12.972;2023-08-01T09:43:11;17.40;99.90
10390;DHT22;5241;47.830;12.972;2023-08-01T09:45:37;17.50;99.90
10390;DHT22;5241;47.830;12.972;2023-08-01T09:48:03;17.40;99.90
10390;DHT22;5241;47.830;12.972;2023-08-01T09:50:28;17.40;99.90
10390;DHT22;5241;47.830;12.972;2023-08-01T09:53:07;17.30;99.90
10390;DHT22;5241;47.830;12.972;2023-08-01T09:55:33;17.30;99.90
10390;DHT22;5241;47.830;12.972;2023-08-01T09:58:00;17.30;99.90
10390;DHT22;5241;47.830;12.972;2023-08-01T10:00:26;17.40;99.90
10390;DHT22;5241;47.830;12.972;2023-08-01T10:02:52;17.50;99.90
10390;DHT22;5241;47.830;12.972;2023-08-01T10:05:19;17.50;99.90
10390;DHT22;5241;47.830;12.972;2023-08-01T10:07:47;17.60;99.90
10390;DHT22;5241;47.830;12.972;2023-08-01T10:10:14;17.60;99.90
10390;DHT22;5241;47.830;12.972;2023-08-01T10:12:45;17.50;99.90
10390;DHT22;5241;47.830;12.972;2023-08-01T10:15:11;17.40;99.90
10390;DHT22;5241;47.830;12.972;2023-08-01T10:17:37;17.30;99.90
10390;DHT22;5241;47.830;12.972;2023-08-01T10:20:03;17.30;99.90
10390;DHT22;5241;47.830;12.972;2023-08-01T10:22:29;17.30;99.90
10390;DHT22;5241;47.830;12.972;2023-08-01T10:24:55;17.20;99.90
10390;DHT22;5241;47.830;12.972;2023-08-01T10:27:22;17.20;99.90
10390;DHT22;5241;47.830;12.972;2023-08-01T10:30:01;17.10;99.90
10390;DHT22;5241;47.830;12.972;2023-08-01T10:34:55;17.00;99.90
10390;DHT22;5241;47.830;12.972;2023-08-01T10:37:21;17.00;99.90
10390;DHT22;5241;47.830;12.972;2023-08-01T10:39:59;17.00;99.90
10390;DHT22;5241;47.830;12.972;2023-08-01T10:42:25;17.00;99.90
10390;DHT22;5241;47.830;12.972;2023-08-01T10:44:51;17.00;99.90
10390;DHT22;5241;47.830;12.972;2023-08-01T10:47:26;17.10;99.90
10390;DHT22;5241;47.830;12.972;2023-08-01T10:49:57;17.10;99.90
10390;DHT22;5241;47.830;12.972;2023-08-01T10:52:26;17.20;99.90
10390;DHT22;5241;47.830;12.972;2023-08-01T10:55:01;17.20;99.90
10390;DHT22;5241;47.830;12.972;2023-08-01T10:57:28;17.30;99.90
10390;DHT22;5241;47.830;12.972;2023-08-01T10:59:58;17.30;99.90
10390;DHT22;5241;47.830;12.972;2023-08-01T11:02:25;17.40;99.90
10390;DHT22;5241;47.830;12.972;2023-08-01T11:05:02;17.40;99.90
10390;DHT22;5241;47.830;12.972;2023-08-01T11:07:29;17.40;99.90
10390;DHT22;5241;47.830;12.972;2023-08-01T11:10:03;17.40;99.90
10390;DHT22;5241;47.830;12.972;2023-08-01T11:12:33;17.50;99.90
10390;DHT22;5241;47.830;12.972;2023-08-01T11:15:02;17.50;99.90
10390;DHT22;5241;47.830;12.972;2023-08-01T11:17:28;17.50;99.90
10390;DHT22;5241;47.830;12.972;2023-08-01T11:20:04;17.50;99.90
10390;DHT22;5241;47.830;12.972;2023-08-01T11:22:31;17.60;99.90
10390;DHT22;5241;47.830;12.972;2023-08-01T11:24:57;17.50;99.90
10390;DHT22;5241;47.830;12.972;2023-08-01T11:27:22;17.40;99.90
10390;DHT22;5241;47.830;12.972;2023-08-01T11:29:48;17.40;99.90
10390;DHT22;5241;47.830;12.972;2023-08-01T11:32:14;17.40;99.90
10390;DHT22;5241;47.830;12.972;2023-08-01T11:34:42;17.40;99.90
10390;DHT22;5241;47.830;12.972;2023-08-01T11:37:10;17.30;99.90
10390;DHT22;5241;47.830;12.972;2023-08-01T11:39:36;17.30;99.90
10390;DHT22;5241;47.830;12.972;2023-08-01T11:42:02;17.20;99.90
10390;DHT22;5241;47.830;12.972;2023-08-01T11:44:28;17.20;99.90
10390;DHT22;5241;47.830;12.972;2023-08-01T11:46:55;17.10;99.90
10390;DHT22;5241;47.830;12.972;2023-08-01T11:49:21;17.10;99.90
10390;DHT22;5241;47.830;12.972;2023-08-01T11:51:47;17.20;99.90
10390;DHT22;5241;47.830;12.972;2023-08-01T11:54:13;17.20;99.90
10390;DHT22;5241;47.830;12.972;2023-08-01T11:56:40;17.30;99.90
10390;DHT22;5241;47.830;12.972;2023-08-01T11:59:14;17.30;99.90
10390;DHT22;5241;47.830;12.972;2023-08-01T12:01:41;17.40;99.90
10390;DHT22;5241;47.830;12.972;2023-08-01T12:04:07;17.50;99.90
10390;DHT22;5241;47.830;12.972;2023-08-01T12:06:33;17.60;99.90
10390;DHT22;5241;47.830;12.972;2023-08-01T12:09:12;17.60;99.90
10390;DHT22;5241;47.830;12.972;2023-08-01T12:11:39;17.50;99.90
10390;DHT22;5241;47.830;12.972;2023-08-01T12:14:13;17.50;99.90
10390;DHT22;5241;47.830;12.972;2023-08-01T12:16:45;17.50;99.90
10390;DHT22;5241;47.830;12.972;2023-08-01T12:19:10;17.50;99.90
10390;DHT22;5241;47.830;12.972;2023-08-01T12:21:36;17.50;99.90
10390;DHT22;5241;47.830;12.972;2023-08-01T12:24:03;17.40;99.90
10390;DHT22;5241;47.830;12.972;2023-08-01T12:26:29;17.40;99.90
10390;DHT22;5241;47.830;12.972;2023-08-01T12:28:54;17.30;99.90
10390;DHT22;5241;47.830;12.972;2023-08-01T12:31:21;17.20;99.90
10390;DHT22;5241;47.830;12.972;2023-08-01T12:33:47;17.00;99.90
10390;DHT22;5241;47.830;12.972;2023-08-01T12:36:14;17.00;99.90
10390;DHT22;5241;47.830;12.972;2023-08-01T12:38:39;17.00;99.90
10390;DHT22;5241;47.830;12.972;2023-08-01T12:41:06;17.00;99.90
10390;DHT22;5241;47.830;12.972;2023-08-01T12:43:32;17.00;99.90
10390;DHT22;5241;47.830;12.972;2023-08-01T12:45:57;17.10;99.90
10390;DHT22;5241;47.830;12.972;2023-08-01T12:48:24;17.10;99.90
10390;DHT22;5241;47.830;12.972;2023-08-01T12:50:50;17.20;99.90
10390;DHT22;5241;47.830;12.972;2023-08-01T12:53:15;17.30;99.90
10390;DHT22;5241;47.830;12.972;2023-08-01T12:55:44;17.30;99.90
10390;DHT22;5241;47.830;12.972;2023-08-01T12:58:10;17.30;99.90
10390;DHT22;5241;47.830;12.972;2023-08-01T13:00:36;17.50;99.90
10390;DHT22;5241;47.830;12.972;2023-08-01T13:03:02;17.60;99.90
10390;DHT22;5241;47.830;12.972;2023-08-01T13:05:27;17.80;99.90
10390;DHT22;5241;47.830;12.972;2023-08-01T13:07:53;17.90;99.90
10390;DHT22;5241;47.830;12.972;2023-08-01T13:10:18;18.00;99.90
10390;DHT22;5241;47.830;12.972;2023-08-01T13:12:44;18.00;99.90
10390;DHT22;5241;47.830;12.972;2023-08-01T13:15:09;18.30;99.90
10390;DHT22;5241;47.830;12.972;2023-08-01T13:17:35;18.60;99.90
10390;DHT22;5241;47.830;12.972;2023-08-01T13:20:01;18.80;99.90
10390;DHT22;5241;47.830;12.972;2023-08-01T13:22:26;18.60;99.90
10390;DHT22;5241;47.830;12.972;2023-08-01T13:24:52;18.50;99.90
10390;DHT22;5241;47.830;12.972;2023-08-01T13:27:17;18.30;99.90
10390;DHT22;5241;47.830;12.972;2023-08-01T13:29:43;18.20;99.90
10390;DHT22;5241;47.830;12.972;2023-08-01T13:32:08;18.00;99.90
10390;DHT22;5241;47.830;12.972;2023-08-01T13:34:34;17.90;99.90
10390;DHT22;5241;47.830;12.972;2023-08-01T13:36:59;17.80;99.90
10390;DHT22;5241;47.830;12.972;2023-08-01T13:39:25;17.80;99.90
10390;DHT22;5241;47.830;12.972;2023-08-01T13:41:50;17.80;99.90
10390;DHT22;5241;47.830;12.972;2023-08-01T13:44:16;17.70;99.90
10390;DHT22;5241;47.830;12.972;2023-08-01T13:46:42;17.70;99.90
10390;DHT22;5241;47.830;12.972;2023-08-01T13:49:07;17.60;99.90
10390;DHT22;5241;47.830;12.972;2023-08-01T13:51:33;17.60;99.90
10390;DHT22;5241;47.830;12.972;2023-08-01T13:53:59;17.70;99.90
10390;DHT22;5241;47.830;12.972;2023-08-01T13:56:25;17.80;99.90
10390;DHT22;5241;47.830;12.972;2023-08-01T13:58:51;17.90;99.90
10390;DHT22;5241;47.830;12.972;2023-08-01T14:01:17;18.00;99.90
10390;DHT22;5241;47.830;12.972;2023-08-01T14:03:44;18.20;99.90
10390;DHT22;5241;47.830;12.972;2023-08-01T14:06:12;18.30;99.90
10390;DHT22;5241;47.830;12.972;2023-08-01T14:08:38;18.40;99.90
10390;DHT22;5241;47.830;12.972;2023-08-01T14:11:06;18.30;99.90
10390;DHT22;5241;47.830;12.972;2023-08-01T14:13:32;18.20;99.90
10390;DHT22;5241;47.830;12.972;2023-08-01T14:15:58;18.20;99.90
10390;DHT22;5241;47.830;12.972;2023-08-01T14:18:24;18.20;99.90
10390;DHT22;5241;47.830;12.972;2023-08-01T14:20:50;18.20;99.90
10390;DHT22;5241;47.830;12.972;2023-08-01T14:23:15;18.10;99.90
10390;DHT22;5241;47.830;12.972;2023-08-01T14:25:41;18.20;99.90
10390;DHT22;5241;47.830;12.972;2023-08-01T14:28:07;18.10;99.90
10390;DHT22;5241;47.830;12.972;2023-08-01T14:30:32;18.10;99.90
10390;DHT22;5241;47.830;12.972;2023-08-01T14:33:08;18.00;99.90
10390;DHT22;5241;47.830;12.972;2023-08-01T14:35:35;18.00;99.90
10390;DHT22;5241;47.830;12.972;2023-08-01T14:38:01;17.90;99.90
10390;DHT22;5241;47.830;12.972;2023-08-01T14:40:28;18.10;99.90
10390;DHT22;5241;47.830;12.972;2023-08-01T14:42:54;18.30;99.90
10390;DHT22;5241;47.830;12.972;2023-08-01T14:45:19;18.60;99.90
10390;DHT22;5241;47.830;12.972;2023-08-01T14:47:46;18.70;99.90
10390;DHT22;5241;47.830;12.972;2023-08-01T14:50:12;18.80;99.90
10390;DHT22;5241;47.830;12.972;2023-08-01T14:52:38;18.90;99.90
10390;DHT22;5241;47.830;12.972;2023-08-01T14:55:04;18.90;99.90
10390;DHT22;5241;47.830;12.972;2023-08-01T14:57:30;19.10;99.90
10390;DHT22;5241;47.830;12.972;2023-08-01T14:59:56;19.70;99.90
10390;DHT22;5241;47.830;12.972;2023-08-01T15:02:22;19.90;99.90
10390;DHT22;5241;47.830;12.972;2023-08-01T15:04:55;20.00;99.90
10390;DHT22;5241;47.830;12.972;2023-08-01T15:07:22;19.90;99.90
10390;DHT22;5241;47.830;12.972;2023-08-01T15:09:47;19.80;99.90
10390;DHT22;5241;47.830;12.972;2023-08-01T15:12:15;19.90;99.90
10390;DHT22;5241;47.830;12.972;2023-08-01T15:14:40;20.10;99.90
10390;DHT22;5241;47.830;12.972;2023-08-01T15:17:06;20.30;99.90
10390;DHT22;5241;47.830;12.972;2023-08-01T15:19:32;20.60;99.90
10390;DHT22;5241;47.830;12.972;2023-08-01T15:21:58;20.50;99.90
10390;DHT22;5241;47.830;12.972;2023-08-01T15:24:24;20.30;99.90
10390;DHT22;5241;47.830;12.972;2023-08-01T15:26:50;20.20;99.90